sensor_id;sensor_type;location;lat;lon;timestamp;P1;durP1;ratioP1;P2;durP2;ratioP2
18693;SDS011;9477;51.414;10.362;2023-02-28T00:00:01;2.57;;;1.17;;
18693;SDS011;9477;51.414;10.362;2023-02-28T00:02:11;0.90;;;0.90;;
18693;SDS011;9477;51.414;10.362;2023-02-28T00:04:14;1.60;;;1.23;;
18693;SDS011;9477;51.414;10.362;2023-02-28T00:06:17;1.13;;;1.00;;
18693;SDS011;9477;51.414;10.362;2023-02-28T00:08:21;1.10;;;1.00;;
18693;SDS011;9477;51.414;10.362;2023-02-28T00:10:25;1.77;;;1.10;;
18693;SDS011;9477;51.414;10.362;2023-02-28T00:12:29;1.60;;;1.17;;
18693;SDS011;9477;51.414;10.362;2023-02-28T00:14:32;4.53;;;1.10;;
18693;SDS011;9477;51.414;10.362;2023-02-28T00:16:35;1.73;;;1.17;;
18693;SDS011;9477;51.414;10.362;2023-02-28T00:18:40;1.60;;;1.10;;
18693;SDS011;9477;51.414;10.362;2023-02-28T00:20:45;1.70;;;1.20;;
18693;SDS011;9477;51.414;10.362;2023-02-28T00:22:49;1.20;;;1.10;;
18693;SDS011;9477;51.414;10.362;2023-02-28T00:24:53;2.00;;;1.10;;
18693;SDS011;9477;51.414;10.362;2023-02-28T00:26:55;1.50;;;0.97;;
18693;SDS011;9477;51.414;10.362;2023-02-28T00:28:58;1.30;;;1.20;;
18693;SDS011;9477;51.414;10.362;2023-02-28T00:31:02;1.37;;;1.20;;
18693;SDS011;9477;51.414;10.362;2023-02-28T00:33:05;1.23;;;1.00;;
18693;SDS011;9477;51.414;10.362;2023-02-28T00:35:10;1.30;;;1.20;;
18693;SDS011;9477;51.414;10.362;2023-02-28T00:37:13;7.97;;;1.30;;
18693;SDS011;9477;51.414;10.362;2023-02-28T00:39:16;2.37;;;1.40;;
18693;SDS011;9477;51.414;10.362;2023-02-28T00:41:19;1.80;;;1.27;;
18693;SDS011;9477;51.414;10.362;2023-02-28T00:43:22;1.93;;;1.20;;
18693;SDS011;9477;51.414;10.362;2023-02-28T00:45:25;1.37;;;1.20;;
18693;SDS011;9477;51.414;10.362;2023-02-28T00:47:28;1.77;;;1.43;;
18693;SDS011;9477;51.414;10.362;2023-02-28T00:49:31;1.20;;;1.10;;
18693;SDS011;9477;51.414;10.362;2023-02-28T00:51:35;2.23;;;1.20;;
18693;SDS011;9477;51.414;10.362;2023-02-28T00:53:38;1.70;;;1.20;;
18693;SDS011;9477;51.414;10.362;2023-02-28T00:55:41;1.30;;;1.20;;
18693;SDS011;9477;51.414;10.362;2023-02-28T00:57:44;2.73;;;1.30;;
18693;SDS011;9477;51.414;10.362;2023-02-28T00:59:47;1.30;;;1.20;;
18693;SDS011;9477;51.414;10.362;2023-02-28T01:01:50;2.53;;;1.33;;
18693;SDS011;9477;51.414;10.362;2023-02-28T01:03:52;1.70;;;1.10;;
18693;SDS011;9477;51.414;10.362;2023-02-28T01:05:55;1.33;;;1.20;;
18693;SDS011;9477;51.414;10.362;2023-02-28T01:08:00;3.23;;;1.27;;
18693;SDS011;9477;51.414;10.362;2023-02-28T01:10:03;1.53;;;1.30;;
18693;SDS011;9477;51.414;10.362;2023-02-28T01:12:06;1.77;;;1.43;;
18693;SDS011;9477;51.414;10.362;2023-02-28T01:14:11;1.37;;;1.27;;
18693;SDS011;9477;51.414;10.362;2023-02-28T01:16:15;2.13;;;1.60;;
18693;SDS011;9477;51.414;10.362;2023-02-28T01:18:18;2.10;;;1.33;;
18693;SDS011;9477;51.414;10.362;2023-02-28T01:20:21;2.83;;;1.30;;
18693;SDS011;9477;51.414;10.362;2023-02-28T01:22:24;1.70;;;1.40;;
18693;SDS011;9477;51.414;10.362;2023-02-28T01:24:28;1.40;;;1.30;;
18693;SDS011;9477;51.414;10.362;2023-02-28T01:26:33;1.43;;;1.30;;
18693;SDS011;9477;51.414;10.362;2023-02-28T01:28:36;1.37;;;1.27;;
18693;SDS011;9477;51.414;10.362;2023-02-28T01:30:40;1.90;;;1.20;;
18693;SDS011;9477;51.414;10.362;2023-02-28T01:32:43;1.97;;;1.40;;
18693;SDS011;9477;51.414;10.362;2023-02-28T01:34:46;1.57;;;1.30;;
18693;SDS011;9477;51.414;10.362;2023-02-28T01:36:49;1.50;;;1.40;;
18693;SDS011;9477;51.414;10.362;2023-02-28T01:38:52;1.53;;;1.30;;
18693;SDS011;9477;51.414;10.362;2023-02-28T01:40:56;2.10;;;1.57;;
18693;SDS011;9477;51.414;10.362;2023-02-28T01:42:59;2.30;;;1.40;;
18693;SDS011;9477;51.414;10.362;2023-02-28T01:45:04;1.90;;;1.37;;
18693;SDS011;9477;51.414;10.362;2023-02-28T01:47:21;2.27;;;1.40;;
18693;SDS011;9477;51.414;10.362;2023-02-28T01:49:26;2.37;;;1.40;;
18693;SDS011;9477;51.414;10.362;2023-02-28T01:51:29;1.50;;;1.40;;
18693;SDS011;9477;51.414;10.362;2023-02-28T01:53:38;2.07;;;1.37;;
18693;SDS011;9477;51.414;10.362;2023-02-28T01:55:46;1.63;;;1.30;;
18693;SDS011;9477;51.414;10.362;2023-02-28T01:57:52;2.63;;;1.83;;
18693;SDS011;9477;51.414;10.362;2023-02-28T01:59:59;2.87;;;1.53;;
18693;SDS011;9477;51.414;10.362;2023-02-28T02:02:08;1.73;;;1.30;;
18693;SDS011;9477;51.414;10.362;2023-02-28T02:04:11;1.70;;;1.40;;
18693;SDS011;9477;51.414;10.362;2023-02-28T02:06:14;1.87;;;1.30;;
18693;SDS011;9477;51.414;10.362;2023-02-28T02:08:17;1.80;;;1.30;;
18693;SDS011;9477;51.414;10.362;2023-02-28T02:10:24;2.77;;;1.37;;
18693;SDS011;9477;51.414;10.362;2023-02-28T02:12:36;1.50;;;1.30;;
18693;SDS011;9477;51.414;10.362;2023-02-28T02:14:55;2.27;;;1.20;;
18693;SDS011;9477;51.414;10.362;2023-02-28T02:17:10;3.57;;;1.43;;
18693;SDS011;9477;51.414;10.362;2023-02-28T02:19:32;2.20;;;1.60;;
18693;SDS011;9477;51.414;10.362;2023-02-28T02:22:02;1.83;;;1.30;;
18693;SDS011;9477;51.414;10.362;2023-02-28T02:24:31;2.10;;;1.40;;
18693;SDS011;9477;51.414;10.362;2023-02-28T02:27:09;2.20;;;1.33;;
18693;SDS011;9477;51.414;10.362;2023-02-28T02:29:35;2.73;;;1.43;;
18693;SDS011;9477;51.414;10.362;2023-02-28T02:31:58;1.67;;;1.23;;
18693;SDS011;9477;51.414;10.362;2023-02-28T02:34:40;1.67;;;1.30;;
18693;SDS011;9477;51.414;10.362;2023-02-28T02:36:48;2.43;;;1.40;;
18693;SDS011;9477;51.414;10.362;2023-02-28T02:38:57;2.30;;;1.40;;
18693;SDS011;9477;51.414;10.362;2023-02-28T02:41:08;1.43;;;1.30;;
18693;SDS011;9477;51.414;10.362;2023-02-28T02:43:17;2.37;;;1.40;;
18693;SDS011;9477;51.414;10.362;2023-02-28T02:45:27;1.60;;;1.40;;
18693;SDS011;9477;51.414;10.362;2023-02-28T02:47:37;2.83;;;1.60;;
18693;SDS011;9477;51.414;10.362;2023-02-28T02:49:43;1.87;;;1.20;;
18693;SDS011;9477;51.414;10.362;2023-02-28T02:51:50;1.90;;;1.40;;
18693;SDS011;9477;51.414;10.362;2023-02-28T02:53:54;2.40;;;1.40;;
18693;SDS011;9477;51.414;10.362;2023-02-28T02:56:00;2.70;;;1.50;;
18693;SDS011;9477;51.414;10.362;2023-02-28T02:58:07;1.20;;;1.10;;
18693;SDS011;9477;51.414;10.362;2023-02-28T03:00:14;2.10;;;1.50;;
18693;SDS011;9477;51.414;10.362;2023-02-28T03:02:19;2.00;;;1.40;;
18693;SDS011;9477;51.414;10.362;2023-02-28T03:04:24;2.07;;;1.40;;
18693;SDS011;9477;51.414;10.362;2023-02-28T03:06:32;1.50;;;1.23;;
18693;SDS011;9477;51.414;10.362;2023-02-28T03:08:37;2.30;;;1.60;;
18693;SDS011;9477;51.414;10.362;2023-02-28T03:10:41;1.93;;;1.53;;
18693;SDS011;9477;51.414;10.362;2023-02-28T03:12:46;2.20;;;1.33;;
18693;SDS011;9477;51.414;10.362;2023-02-28T03:14:56;2.63;;;1.47;;
18693;SDS011;9477;51.414;10.362;2023-02-28T03:17:13;2.80;;;1.30;;
18693;SDS011;9477;51.414;10.362;2023-02-28T03:19:36;2.63;;;1.60;;
18693;SDS011;9477;51.414;10.362;2023-02-28T03:21:50;1.83;;;1.50;;
18693;SDS011;9477;51.414;10.362;2023-02-28T03:24:03;1.70;;;1.47;;
18693;SDS011;9477;51.414;10.362;2023-02-28T03:26:12;2.67;;;1.60;;
18693;SDS011;9477;51.414;10.362;2023-02-28T03:28:22;1.43;;;1.27;;
18693;SDS011;9477;51.414;10.362;2023-02-28T03:30:36;1.80;;;1.37;;
18693;SDS011;9477;51.414;10.362;2023-02-28T03:32:45;3.80;;;1.70;;
18693;SDS011;9477;51.414;10.362;2023-02-28T03:34:56;3.23;;;1.47;;
18693;SDS011;9477;51.414;10.362;2023-02-28T03:37:07;2.13;;;1.47;;
18693;SDS011;9477;51.414;10.362;2023-02-28T03:39:15;3.17;;;1.60;;
18693;SDS011;9477;51.414;10.362;2023-02-28T03:41:21;3.23;;;1.63;;
18693;SDS011;9477;51.414;10.362;2023-02-28T03:43:32;3.70;;;1.53;;
18693;SDS011;9477;51.414;10.362;2023-02-28T03:45:39;3.30;;;1.47;;
18693;SDS011;9477;51.414;10.362;2023-02-28T03:47:44;1.70;;;1.40;;
18693;SDS011;9477;51.414;10.362;2023-02-28T03:49:53;1.93;;;1.40;;
18693;SDS011;9477;51.414;10.362;2023-02-28T03:52:00;3.47;;;1.50;;
18693;SDS011;9477;51.414;10.362;2023-02-28T03:54:08;3.47;;;1.53;;
18693;SDS011;9477;51.414;10.362;2023-02-28T03:56:15;3.20;;;1.77;;
18693;SDS011;9477;51.414;10.362;2023-02-28T03:58:24;2.70;;;1.70;;
18693;SDS011;9477;51.414;10.362;2023-02-28T04:00:34;3.53;;;1.53;;
18693;SDS011;9477;51.414;10.362;2023-02-28T04:02:41;1.80;;;1.47;;
18693;SDS011;9477;51.414;10.362;2023-02-28T04:04:44;2.63;;;1.60;;
18693;SDS011;9477;51.414;10.362;2023-02-28T04:06:50;2.63;;;1.70;;
18693;SDS011;9477;51.414;10.362;2023-02-28T04:08:54;3.60;;;1.70;;
18693;SDS011;9477;51.414;10.362;2023-02-28T04:11:00;2.37;;;1.50;;
18693;SDS011;9477;51.414;10.362;2023-02-28T04:13:05;1.53;;;1.43;;
18693;SDS011;9477;51.414;10.362;2023-02-28T04:15:08;1.70;;;1.60;;
18693;SDS011;9477;51.414;10.362;2023-02-28T04:17:12;1.87;;;1.40;;
18693;SDS011;9477;51.414;10.362;2023-02-28T04:19:15;3.97;;;1.67;;
18693;SDS011;9477;51.414;10.362;2023-02-28T04:21:18;3.90;;;1.40;;
18693;SDS011;9477;51.414;10.362;2023-02-28T04:23:23;2.93;;;1.50;;
18693;SDS011;9477;51.414;10.362;2023-02-28T04:25:26;3.33;;;1.50;;
18693;SDS011;9477;51.414;10.362;2023-02-28T04:27:30;1.70;;;1.50;;
18693;SDS011;9477;51.414;10.362;2023-02-28T04:29:33;2.40;;;1.53;;
18693;SDS011;9477;51.414;10.362;2023-02-28T04:31:36;2.40;;;1.60;;
18693;SDS011;9477;51.414;10.362;2023-02-28T04:33:39;2.63;;;1.63;;
18693;SDS011;9477;51.414;10.362;2023-02-28T04:35:42;3.70;;;1.60;;
18693;SDS011;9477;51.414;10.362;2023-02-28T04:37:45;2.43;;;1.43;;
18693;SDS011;9477;51.414;10.362;2023-02-28T04:39:48;2.17;;;1.50;;
18693;SDS011;9477;51.414;10.362;2023-02-28T04:41:51;2.10;;;1.30;;
18693;SDS011;9477;51.414;10.362;2023-02-28T04:43:55;2.60;;;1.60;;
18693;SDS011;9477;51.414;10.362;2023-02-28T04:46:00;3.43;;;1.90;;
18693;SDS011;9477;51.414;10.362;2023-02-28T04:48:05;2.67;;;1.70;;
18693;SDS011;9477;51.414;10.362;2023-02-28T04:50:08;3.63;;;1.50;;
18693;SDS011;9477;51.414;10.362;2023-02-28T04:52:11;3.20;;;1.63;;
18693;SDS011;9477;51.414;10.362;2023-02-28T04:54:14;4.23;;;1.70;;
18693;SDS011;9477;51.414;10.362;2023-02-28T04:56:19;3.30;;;1.83;;
18693;SDS011;9477;51.414;10.362;2023-02-28T04:58:22;1.97;;;1.60;;
18693;SDS011;9477;51.414;10.362;2023-02-28T05:00:27;4.43;;;1.70;;
18693;SDS011;9477;51.414;10.362;2023-02-28T05:02:30;1.97;;;1.53;;
18693;SDS011;9477;51.414;10.362;2023-02-28T05:04:33;2.63;;;1.60;;
18693;SDS011;9477;51.414;10.362;2023-02-28T05:06:36;2.40;;;1.43;;
18693;SDS011;9477;51.414;10.362;2023-02-28T05:08:39;3.23;;;1.50;;
18693;SDS011;9477;51.414;10.362;2023-02-28T05:10:42;2.90;;;1.50;;
18693;SDS011;9477;51.414;10.362;2023-02-28T05:12:45;3.20;;;1.60;;
18693;SDS011;9477;51.414;10.362;2023-02-28T05:14:49;1.87;;;1.50;;
18693;SDS011;9477;51.414;10.362;2023-02-28T05:16:53;2.13;;;1.53;;
18693;SDS011;9477;51.414;10.362;2023-02-28T05:18:56;6.13;;;1.60;;
18693;SDS011;9477;51.414;10.362;2023-02-28T05:20:59;3.47;;;1.90;;
18693;SDS011;9477;51.414;10.362;2023-02-28T05:23:03;2.60;;;1.50;;
18693;SDS011;9477;51.414;10.362;2023-02-28T05:25:06;3.57;;;1.57;;
18693;SDS011;9477;51.414;10.362;2023-02-28T05:27:13;2.97;;;1.60;;
18693;SDS011;9477;51.414;10.362;2023-02-28T05:29:16;3.30;;;1.73;;
18693;SDS011;9477;51.414;10.362;2023-02-28T05:31:19;2.23;;;1.57;;
18693;SDS011;9477;51.414;10.362;2023-02-28T05:33:23;3.20;;;1.87;;
18693;SDS011;9477;51.414;10.362;2023-02-28T05:35:26;9.77;;;3.60;;
18693;SDS011;9477;51.414;10.362;2023-02-28T05:37:29;3.10;;;1.90;;
18693;SDS011;9477;51.414;10.362;2023-02-28T05:39:32;3.30;;;1.73;;
18693;SDS011;9477;51.414;10.362;2023-02-28T05:41:35;4.17;;;1.80;;
18693;SDS011;9477;51.414;10.362;2023-02-28T05:43:38;3.17;;;1.77;;
18693;SDS011;9477;51.414;10.362;2023-02-28T05:45:41;1.77;;;1.40;;
18693;SDS011;9477;51.414;10.362;2023-02-28T05:47:44;2.63;;;1.43;;
18693;SDS011;9477;51.414;10.362;2023-02-28T05:49:48;3.07;;;1.77;;
18693;SDS011;9477;51.414;10.362;2023-02-28T05:51:51;1.97;;;1.53;;
18693;SDS011;9477;51.414;10.362;2023-02-28T05:53:54;3.70;;;1.80;;
18693;SDS011;9477;51.414;10.362;2023-02-28T05:55:58;5.17;;;1.87;;
18693;SDS011;9477;51.414;10.362;2023-02-28T05:58:01;5.53;;;1.70;;
18693;SDS011;9477;51.414;10.362;2023-02-28T06:00:04;3.27;;;2.03;;
18693;SDS011;9477;51.414;10.362;2023-02-28T06:02:09;3.13;;;1.97;;
18693;SDS011;9477;51.414;10.362;2023-02-28T06:04:15;4.80;;;1.70;;
18693;SDS011;9477;51.414;10.362;2023-02-28T06:06:33;2.50;;;2.00;;
18693;SDS011;9477;51.414;10.362;2023-02-28T06:08:37;4.90;;;2.20;;
18693;SDS011;9477;51.414;10.362;2023-02-28T06:10:40;3.53;;;2.30;;
18693;SDS011;9477;51.414;10.362;2023-02-28T06:12:43;6.03;;;1.97;;
18693;SDS011;9477;51.414;10.362;2023-02-28T06:14:46;3.20;;;2.20;;
18693;SDS011;9477;51.414;10.362;2023-02-28T06:16:49;2.37;;;1.80;;
18693;SDS011;9477;51.414;10.362;2023-02-28T06:18:52;4.77;;;2.00;;
18693;SDS011;9477;51.414;10.362;2023-02-28T06:20:57;2.17;;;1.70;;
18693;SDS011;9477;51.414;10.362;2023-02-28T06:23:01;2.50;;;1.97;;
18693;SDS011;9477;51.414;10.362;2023-02-28T06:25:05;4.07;;;1.80;;
18693;SDS011;9477;51.414;10.362;2023-02-28T06:27:08;5.10;;;2.10;;
18693;SDS011;9477;51.414;10.362;2023-02-28T06:29:11;2.03;;;1.70;;
18693;SDS011;9477;51.414;10.362;2023-02-28T06:31:19;2.73;;;1.90;;
18693;SDS011;9477;51.414;10.362;2023-02-28T06:33:23;4.37;;;2.10;;
18693;SDS011;9477;51.414;10.362;2023-02-28T06:35:27;2.07;;;1.57;;
18693;SDS011;9477;51.414;10.362;2023-02-28T06:37:30;3.20;;;1.70;;
18693;SDS011;9477;51.414;10.362;2023-02-28T06:39:35;3.37;;;1.83;;
18693;SDS011;9477;51.414;10.362;2023-02-28T06:41:38;3.27;;;1.97;;
18693;SDS011;9477;51.414;10.362;2023-02-28T06:43:55;2.77;;;2.10;;
18693;SDS011;9477;51.414;10.362;2023-02-28T06:45:59;2.40;;;1.70;;
18693;SDS011;9477;51.414;10.362;2023-02-28T06:48:03;4.03;;;2.07;;
18693;SDS011;9477;51.414;10.362;2023-02-28T06:50:06;2.70;;;1.60;;
18693;SDS011;9477;51.414;10.362;2023-02-28T06:52:10;2.53;;;1.80;;
18693;SDS011;9477;51.414;10.362;2023-02-28T06:54:13;2.90;;;1.70;;
18693;SDS011;9477;51.414;10.362;2023-02-28T06:56:18;2.40;;;1.63;;
18693;SDS011;9477;51.414;10.362;2023-02-28T06:58:22;2.73;;;1.73;;
18693;SDS011;9477;51.414;10.362;2023-02-28T07:00:25;4.07;;;1.80;;
18693;SDS011;9477;51.414;10.362;2023-02-28T07:02:28;9.50;;;2.70;;
18693;SDS011;9477;51.414;10.362;2023-02-28T07:04:31;2.87;;;2.00;;
18693;SDS011;9477;51.414;10.362;2023-02-28T07:06:34;2.00;;;1.80;;
18693;SDS011;9477;51.414;10.362;2023-02-28T07:08:37;2.67;;;1.80;;
18693;SDS011;9477;51.414;10.362;2023-02-28T07:10:41;5.10;;;1.80;;
18693;SDS011;9477;51.414;10.362;2023-02-28T07:12:45;4.80;;;2.20;;
18693;SDS011;9477;51.414;10.362;2023-02-28T07:14:48;3.50;;;1.97;;
18693;SDS011;9477;51.414;10.362;2023-02-28T07:16:51;2.97;;;2.00;;
18693;SDS011;9477;51.414;10.362;2023-02-28T07:18:54;2.87;;;1.70;;
18693;SDS011;9477;51.414;10.362;2023-02-28T07:20:57;2.57;;;1.93;;
18693;SDS011;9477;51.414;10.362;2023-02-28T07:23:00;4.53;;;3.13;;
18693;SDS011;9477;51.414;10.362;2023-02-28T07:25:03;4.27;;;2.10;;
18693;SDS011;9477;51.414;10.362;2023-02-28T07:27:07;2.87;;;2.10;;
18693;SDS011;9477;51.414;10.362;2023-02-28T07:29:11;4.60;;;2.40;;
18693;SDS011;9477;51.414;10.362;2023-02-28T07:31:14;3.70;;;2.13;;
18693;SDS011;9477;51.414;10.362;2023-02-28T07:33:19;3.30;;;2.10;;
18693;SDS011;9477;51.414;10.362;2023-02-28T07:35:22;4.63;;;2.40;;
18693;SDS011;9477;51.414;10.362;2023-02-28T07:37:25;3.67;;;2.03;;
18693;SDS011;9477;51.414;10.362;2023-02-28T07:39:28;3.83;;;2.40;;
18693;SDS011;9477;51.414;10.362;2023-02-28T07:41:31;4.00;;;2.57;;
18693;SDS011;9477;51.414;10.362;2023-02-28T07:43:35;3.60;;;2.60;;
18693;SDS011;9477;51.414;10.362;2023-02-28T07:45:39;3.23;;;2.30;;
18693;SDS011;9477;51.414;10.362;2023-02-28T07:47:42;3.03;;;2.43;;
18693;SDS011;9477;51.414;10.362;2023-02-28T07:49:46;4.13;;;2.30;;
18693;SDS011;9477;51.414;10.362;2023-02-28T07:51:48;3.27;;;2.60;;
18693;SDS011;9477;51.414;10.362;2023-02-28T07:53:51;4.43;;;2.57;;
18693;SDS011;9477;51.414;10.362;2023-02-28T07:55:54;4.47;;;2.63;;
18693;SDS011;9477;51.414;10.362;2023-02-28T07:57:58;5.03;;;2.60;;
18693;SDS011;9477;51.414;10.362;2023-02-28T08:00:02;3.47;;;2.60;;
18693;SDS011;9477;51.414;10.362;2023-02-28T08:02:08;4.93;;;2.80;;
18693;SDS011;9477;51.414;10.362;2023-02-28T08:04:14;3.93;;;2.73;;
18693;SDS011;9477;51.414;10.362;2023-02-28T08:06:18;6.97;;;2.70;;
18693;SDS011;9477;51.414;10.362;2023-02-28T08:08:21;4.73;;;2.80;;
18693;SDS011;9477;51.414;10.362;2023-02-28T08:10:24;6.30;;;2.90;;
18693;SDS011;9477;51.414;10.362;2023-02-28T08:12:27;3.43;;;2.80;;
18693;SDS011;9477;51.414;10.362;2023-02-28T08:14:30;7.00;;;2.80;;
18693;SDS011;9477;51.414;10.362;2023-02-28T08:16:33;2.70;;;2.20;;
18693;SDS011;9477;51.414;10.362;2023-02-28T08:18:37;7.20;;;3.10;;
18693;SDS011;9477;51.414;10.362;2023-02-28T08:20:40;3.40;;;2.77;;
18693;SDS011;9477;51.414;10.362;2023-02-28T08:22:44;5.13;;;2.83;;
18693;SDS011;9477;51.414;10.362;2023-02-28T08:24:49;5.50;;;2.73;;
18693;SDS011;9477;51.414;10.362;2023-02-28T08:26:52;3.33;;;2.60;;
18693;SDS011;9477;51.414;10.362;2023-02-28T08:28:55;6.03;;;2.87;;
18693;SDS011;9477;51.414;10.362;2023-02-28T08:31:01;5.87;;;2.67;;
18693;SDS011;9477;51.414;10.362;2023-02-28T08:33:09;5.33;;;3.03;;
18693;SDS011;9477;51.414;10.362;2023-02-28T08:35:14;3.80;;;2.50;;
18693;SDS011;9477;51.414;10.362;2023-02-28T08:37:16;4.23;;;2.80;;
18693;SDS011;9477;51.414;10.362;2023-02-28T08:39:19;3.37;;;2.63;;
18693;SDS011;9477;51.414;10.362;2023-02-28T08:41:22;6.40;;;2.83;;
18693;SDS011;9477;51.414;10.362;2023-02-28T08:43:25;3.97;;;2.67;;
18693;SDS011;9477;51.414;10.362;2023-02-28T08:45:29;4.63;;;2.67;;
18693;SDS011;9477;51.414;10.362;2023-02-28T08:47:32;4.37;;;2.80;;
18693;SDS011;9477;51.414;10.362;2023-02-28T08:49:36;4.70;;;2.63;;
18693;SDS011;9477;51.414;10.362;2023-02-28T08:51:40;4.67;;;2.90;;
18693;SDS011;9477;51.414;10.362;2023-02-28T08:53:43;5.57;;;2.80;;
18693;SDS011;9477;51.414;10.362;2023-02-28T08:55:47;4.67;;;3.10;;
18693;SDS011;9477;51.414;10.362;2023-02-28T08:57:57;5.30;;;2.67;;
18693;SDS011;9477;51.414;10.362;2023-02-28T09:00:00;5.30;;;2.60;;
18693;SDS011;9477;51.414;10.362;2023-02-28T09:02:06;6.07;;;2.90;;
18693;SDS011;9477;51.414;10.362;2023-02-28T09:04:10;4.10;;;2.60;;
18693;SDS011;9477;51.414;10.362;2023-02-28T09:06:19;5.23;;;3.00;;
18693;SDS011;9477;51.414;10.362;2023-02-28T09:08:25;5.30;;;3.07;;
18693;SDS011;9477;51.414;10.362;2023-02-28T09:10:29;5.77;;;3.30;;
18693;SDS011;9477;51.414;10.362;2023-02-28T09:12:33;4.37;;;2.60;;
18693;SDS011;9477;51.414;10.362;2023-02-28T09:14:36;5.40;;;2.53;;
18693;SDS011;9477;51.414;10.362;2023-02-28T09:16:39;4.10;;;2.87;;
18693;SDS011;9477;51.414;10.362;2023-02-28T09:18:43;3.23;;;2.57;;
18693;SDS011;9477;51.414;10.362;2023-02-28T09:20:46;8.00;;;2.53;;
18693;SDS011;9477;51.414;10.362;2023-02-28T09:22:49;3.40;;;2.60;;
18693;SDS011;9477;51.414;10.362;2023-02-28T09:24:53;4.47;;;2.50;;
18693;SDS011;9477;51.414;10.362;2023-02-28T09:26:56;3.30;;;2.70;;
18693;SDS011;9477;51.414;10.362;2023-02-28T09:29:05;5.67;;;2.90;;
18693;SDS011;9477;51.414;10.362;2023-02-28T09:31:11;3.47;;;2.50;;
18693;SDS011;9477;51.414;10.362;2023-02-28T09:33:15;4.97;;;2.60;;
18693;SDS011;9477;51.414;10.362;2023-02-28T09:35:22;10.03;;;2.50;;
18693;SDS011;9477;51.414;10.362;2023-02-28T09:37:26;9.37;;;2.60;;
18693;SDS011;9477;51.414;10.362;2023-02-28T09:39:30;3.33;;;2.50;;
18693;SDS011;9477;51.414;10.362;2023-02-28T09:41:37;4.27;;;2.80;;
18693;SDS011;9477;51.414;10.362;2023-02-28T09:43:50;4.53;;;2.67;;
18693;SDS011;9477;51.414;10.362;2023-02-28T09:45:56;4.13;;;2.63;;
18693;SDS011;9477;51.414;10.362;2023-02-28T09:48:06;3.80;;;2.43;;
18693;SDS011;9477;51.414;10.362;2023-02-28T09:50:17;3.07;;;2.27;;
18693;SDS011;9477;51.414;10.362;2023-02-28T09:52:28;7.00;;;2.60;;
18693;SDS011;9477;51.414;10.362;2023-02-28T09:54:32;3.80;;;2.50;;
18693;SDS011;9477;51.414;10.362;2023-02-28T09:56:36;4.27;;;2.60;;
18693;SDS011;9477;51.414;10.362;2023-02-28T09:58:44;5.37;;;2.70;;
18693;SDS011;9477;51.414;10.362;2023-02-28T10:00:54;4.73;;;2.60;;
18693;SDS011;9477;51.414;10.362;2023-02-28T10:03:17;4.77;;;2.60;;
18693;SDS011;9477;51.414;10.362;2023-02-28T10:05:36;6.13;;;2.50;;
18693;SDS011;9477;51.414;10.362;2023-02-28T10:07:48;3.50;;;2.40;;
18693;SDS011;9477;51.414;10.362;2023-02-28T10:10:01;8.57;;;2.80;;
18693;SDS011;9477;51.414;10.362;2023-02-28T10:12:09;2.63;;;2.00;;
18693;SDS011;9477;51.414;10.362;2023-02-28T10:14:14;3.90;;;2.63;;
18693;SDS011;9477;51.414;10.362;2023-02-28T10:16:21;2.97;;;2.10;;
18693;SDS011;9477;51.414;10.362;2023-02-28T10:18:29;3.83;;;2.43;;
18693;SDS011;9477;51.414;10.362;2023-02-28T10:20:40;3.43;;;2.20;;
18693;SDS011;9477;51.414;10.362;2023-02-28T10:22:52;5.83;;;2.60;;
18693;SDS011;9477;51.414;10.362;2023-02-28T10:24:59;3.60;;;2.30;;
18693;SDS011;9477;51.414;10.362;2023-02-28T10:27:12;5.43;;;2.60;;
18693;SDS011;9477;51.414;10.362;2023-02-28T10:29:16;6.67;;;2.77;;
18693;SDS011;9477;51.414;10.362;2023-02-28T10:31:19;2.83;;;2.37;;
18693;SDS011;9477;51.414;10.362;2023-02-28T10:33:28;4.60;;;2.47;;
18693;SDS011;9477;51.414;10.362;2023-02-28T10:35:32;4.97;;;3.03;;
18693;SDS011;9477;51.414;10.362;2023-02-28T10:37:36;5.20;;;2.70;;
18693;SDS011;9477;51.414;10.362;2023-02-28T10:39:41;4.30;;;2.37;;
18693;SDS011;9477;51.414;10.362;2023-02-28T10:41:45;3.80;;;2.67;;
18693;SDS011;9477;51.414;10.362;2023-02-28T10:43:49;4.57;;;2.87;;
18693;SDS011;9477;51.414;10.362;2023-02-28T10:45:53;3.47;;;2.60;;
18693;SDS011;9477;51.414;10.362;2023-02-28T10:48:00;3.70;;;2.90;;
18693;SDS011;9477;51.414;10.362;2023-02-28T10:50:05;3.73;;;2.80;;
18693;SDS011;9477;51.414;10.362;2023-02-28T10:52:35;5.57;;;3.00;;
18693;SDS011;9477;51.414;10.362;2023-02-28T10:54:39;5.70;;;2.80;;
18693;SDS011;9477;51.414;10.362;2023-02-28T10:56:42;3.67;;;2.90;;
18693;SDS011;9477;51.414;10.362;2023-02-28T10:58:51;5.60;;;3.33;;
18693;SDS011;9477;51.414;10.362;2023-02-28T11:00:55;4.27;;;2.73;;
18693;SDS011;9477;51.414;10.362;2023-02-28T11:02:59;6.97;;;2.83;;
18693;SDS011;9477;51.414;10.362;2023-02-28T11:07:26;3.90;;;2.80;;
18693;SDS011;9477;51.414;10.362;2023-02-28T11:09:41;6.07;;;3.00;;
18693;SDS011;9477;51.414;10.362;2023-02-28T11:11:48;4.57;;;3.00;;
18693;SDS011;9477;51.414;10.362;2023-02-28T11:13:55;4.03;;;2.77;;
18693;SDS011;9477;51.414;10.362;2023-02-28T11:16:06;3.40;;;2.60;;
18693;SDS011;9477;51.414;10.362;2023-02-28T11:18:18;5.43;;;2.80;;
18693;SDS011;9477;51.414;10.362;2023-02-28T11:20:26;7.67;;;3.10;;
18693;SDS011;9477;51.414;10.362;2023-02-28T11:22:32;5.77;;;2.77;;
18693;SDS011;9477;51.414;10.362;2023-02-28T11:24:40;5.63;;;3.57;;
18693;SDS011;9477;51.414;10.362;2023-02-28T11:26:47;5.43;;;3.07;;
18693;SDS011;9477;51.414;10.362;2023-02-28T11:28:50;5.10;;;2.77;;
18693;SDS011;9477;51.414;10.362;2023-02-28T11:31:15;4.53;;;3.00;;
18693;SDS011;9477;51.414;10.362;2023-02-28T11:33:22;6.87;;;3.30;;
18693;SDS011;9477;51.414;10.362;2023-02-28T11:35:29;4.80;;;3.03;;
18693;SDS011;9477;51.414;10.362;2023-02-28T11:37:36;4.03;;;3.13;;
18693;SDS011;9477;51.414;10.362;2023-02-28T11:39:41;7.67;;;3.27;;
18693;SDS011;9477;51.414;10.362;2023-02-28T11:42:00;7.40;;;3.30;;
18693;SDS011;9477;51.414;10.362;2023-02-28T11:46:44;4.93;;;3.33;;
18693;SDS011;9477;51.414;10.362;2023-02-28T11:48:55;6.57;;;3.40;;
18693;SDS011;9477;51.414;10.362;2023-02-28T11:51:06;6.73;;;2.90;;
18693;SDS011;9477;51.414;10.362;2023-02-28T11:53:21;5.53;;;3.50;;
18693;SDS011;9477;51.414;10.362;2023-02-28T11:55:29;4.73;;;3.40;;
18693;SDS011;9477;51.414;10.362;2023-02-28T11:57:40;5.47;;;3.40;;
18693;SDS011;9477;51.414;10.362;2023-02-28T12:00:00;3.87;;;3.20;;
18693;SDS011;9477;51.414;10.362;2023-02-28T12:02:18;6.57;;;3.60;;
18693;SDS011;9477;51.414;10.362;2023-02-28T12:04:26;5.93;;;3.20;;
18693;SDS011;9477;51.414;10.362;2023-02-28T12:06:38;8.30;;;3.27;;
18693;SDS011;9477;51.414;10.362;2023-02-28T12:08:52;5.37;;;3.27;;
18693;SDS011;9477;51.414;10.362;2023-02-28T12:11:06;6.47;;;3.37;;
18693;SDS011;9477;51.414;10.362;2023-02-28T12:13:18;4.37;;;3.40;;
18693;SDS011;9477;51.414;10.362;2023-02-28T12:15:44;5.57;;;3.20;;
18693;SDS011;9477;51.414;10.362;2023-02-28T12:18:17;6.87;;;3.40;;
18693;SDS011;9477;51.414;10.362;2023-02-28T12:20:32;6.13;;;3.57;;
18693;SDS011;9477;51.414;10.362;2023-02-28T12:22:39;6.43;;;3.50;;
18693;SDS011;9477;51.414;10.362;2023-02-28T12:24:53;5.90;;;3.63;;
18693;SDS011;9477;51.414;10.362;2023-02-28T12:27:05;5.37;;;3.53;;
18693;SDS011;9477;51.414;10.362;2023-02-28T12:29:13;7.93;;;3.80;;
18693;SDS011;9477;51.414;10.362;2023-02-28T12:31:24;6.60;;;3.83;;
18693;SDS011;9477;51.414;10.362;2023-02-28T12:33:32;5.37;;;3.67;;
18693;SDS011;9477;51.414;10.362;2023-02-28T12:35:38;7.47;;;3.40;;
18693;SDS011;9477;51.414;10.362;2023-02-28T12:37:47;7.57;;;3.70;;
18693;SDS011;9477;51.414;10.362;2023-02-28T12:39:59;6.67;;;3.67;;
18693;SDS011;9477;51.414;10.362;2023-02-28T12:42:08;4.23;;;3.40;;
18693;SDS011;9477;51.414;10.362;2023-02-28T12:44:17;4.10;;;3.57;;
18693;SDS011;9477;51.414;10.362;2023-02-28T12:46:27;5.73;;;3.83;;